Time;durP1;ratioP1;P1;durP2;ratioP2;P2;SDS_P1;SDS_P2;PMS_P1;PMS_P2;Temp;Humidity;BMP_temperature;BMP_pressure;BME280_temperature;BME280_humidity;BME280_pressure;Samples;Min_cycle;Max_cycle;Signal;HPM_P1;HPM_P2
2022/07/18 00:01:58;;;;;;;8.40;2.63;;;;;;;12.56;85.84;100695.56;4225566;28;21862;-63
2022/07/18 00:04:26;;;;;;;7.30;2.17;;;;;;;12.58;85.37;100689.06;4206166;28;20238;-65
2022/07/18 00:06:53;;;;;;;10.80;2.33;;;;;;;12.46;85.68;100695.63;4217585;28;20649;-62
2022/07/18 00:09:22;;;;;;;5.00;2.03;;;;;;;12.45;85.78;100692.13;4208749;28;20233;-64
2022/07/18 00:11:50;;;;;;;7.60;2.47;;;;;;;12.40;85.89;100697.03;4210067;28;20468;-64
2022/07/18 00:14:17;;;;;;;7.40;2.57;;;;;;;12.34;86.95;100692.31;4210208;28;20234;-64
2022/07/18 00:16:44;;;;;;;6.97;2.70;;;;;;;12.30;86.36;100693.59;4208185;28;20240;-64
2022/07/18 00:19:11;;;;;;;5.80;2.87;;;;;;;12.30;86.60;100687.44;4206380;28;20297;-62
2022/07/18 00:21:37;;;;;;;8.63;2.77;;;;;;;12.20;87.05;100688.34;4207540;28;20240;-62
2022/07/18 00:24:04;;;;;;;8.83;2.90;;;;;;;12.25;87.00;100694.06;4204882;28;20239;-64
2022/07/18 00:26:31;;;;;;;7.63;3.07;;;;;;;12.18;86.97;100692.16;4192991;28;20954;-62
2022/07/18 00:28:58;;;;;;;10.67;2.57;;;;;;;12.12;87.05;100698.06;4207417;28;20282;-66
2022/07/18 00:31:24;;;;;;;7.93;2.73;;;;;;;12.16;87.24;100688.78;4212018;28;22431;-61
2022/07/18 00:33:51;;;;;;;7.00;2.60;;;;;;;12.18;87.38;100698.31;4205771;28;20339;-63
2022/07/18 00:36:17;;;;;;;5.30;2.73;;;;;;;12.08;87.49;100696.69;4207101;28;20243;-62
2022/07/18 00:38:44;;;;;;;8.47;3.17;;;;;;;12.03;87.87;100689.13;4210322;28;20235;-62
2022/07/18 00:41:14;;;;;;;7.17;2.80;;;;;;;12.02;87.72;100687.44;4211649;28;23093;-62
2022/07/18 00:43:41;;;;;;;10.67;3.33;;;;;;;12.01;88.14;100691.09;4207987;28;20232;-63
2022/07/18 00:46:08;;;;;;;10.83;3.60;;;;;;;11.98;88.32;100689.56;4208920;28;20247;-64
2022/07/18 00:48:35;;;;;;;10.30;3.33;;;;;;;12.04;88.41;100691.66;4204714;28;20234;-62
2022/07/18 00:51:01;;;;;;;9.93;3.73;;;;;;;11.97;88.56;100695.06;4206356;28;20316;-64
2022/07/18 00:53:28;;;;;;;8.53;3.57;;;;;;;12.00;88.03;100700.09;4202682;28;20329;-64
2022/07/18 00:55:55;;;;;;;8.70;3.50;;;;;;;11.96;88.82;100694.22;4205123;28;21194;-62
2022/07/18 00:58:21;;;;;;;10.20;3.83;;;;;;;11.97;88.13;100689.72;4210256;28;20622;-64
2022/07/18 01:03:33;;;;;;;8.57;3.60;;;;;;;11.87;89.34;100691.53;4205481;28;20238;-65
2022/07/18 01:06:00;;;;;;;11.47;3.90;;;;;;;11.77;89.97;100689.75;4212163;28;20224;-63
2022/07/18 01:08:27;;;;;;;7.77;3.50;;;;;;;11.80;89.82;100688.66;4209734;28;20471;-62
2022/07/18 01:10:54;;;;;;;10.73;3.80;;;;;;;11.75;90.29;100686.44;4207020;28;23241;-61
2022/07/18 01:13:21;;;;;;;6.60;3.60;;;;;;;11.81;89.93;100696.47;4204015;28;21241;-65
2022/07/18 01:15:47;;;;;;;9.10;3.40;;;;;;;11.77;89.61;100695.09;4204410;28;21147;-66
2022/07/18 01:18:14;;;;;;;11.33;3.80;;;;;;;11.75;90.31;100691.75;4209737;28;23999;-63
2022/07/18 01:20:41;;;;;;;6.87;3.63;;;;;;;11.74;90.95;100700.72;4211094;28;20305;-63
2022/07/18 01:23:07;;;;;;;12.97;4.17;;;;;;;11.60;90.96;100695.88;4210733;28;21789;-62
2022/07/18 01:25:34;;;;;;;6.93;3.77;;;;;;;11.57;91.46;100704.16;4215043;28;20592;-62
2022/07/18 01:28:01;;;;;;;9.47;3.83;;;;;;;11.51;91.59;100704.72;4214011;28;20342;-63
2022/07/18 01:30:27;;;;;;;8.50;3.97;;;;;;;11.56;91.42;100713.97;4212070;28;20241;-63
2022/07/18 01:32:56;;;;;;;11.57;4.27;;;;;;;11.49;91.73;100707.53;4211893;28;20948;-64
2022/07/18 01:35:23;;;;;;;7.93;3.10;;;;;;;11.48;92.31;100705.88;4213456;28;20233;-62
2022/07/18 01:37:54;;;;;;;7.47;3.70;;;;;;;11.44;92.88;100707.13;4200428;28;22099;-62
2022/07/18 01:40:21;;;;;;;7.23;4.00;;;;;;;11.44;92.62;100706.28;4207129;28;20232;-62
2022/07/18 01:42:48;;;;;;;9.13;3.90;;;;;;;11.39;92.73;100707.56;4215282;28;20235;-64
2022/07/18 01:45:15;;;;;;;7.53;3.70;;;;;;;11.38;92.80;100699.72;4204749;28;20518;-63
2022/07/18 01:47:42;;;;;;;7.73;3.73;;;;;;;11.36;92.80;100699.84;4211718;28;20300;-63
2022/07/18 01:50:10;;;;;;;9.60;4.23;;;;;;;11.35;93.19;100700.81;4213936;28;20232;-62
2022/07/18 01:52:37;;;;;;;7.77;4.00;;;;;;;11.38;92.63;100700.56;4233165;28;20255;-63
2022/07/18 01:55:06;;;;;;;8.33;3.70;;;;;;;11.36;92.93;100707.84;4203589;28;20508;-63
2022/07/18 01:57:33;;;;;;;7.00;3.70;;;;;;;11.35;93.48;100700.00;4210424;28;21490;-65
2022/07/18 02:00:00;;;;;;;17.27;4.37;;;;;;;11.37;93.58;100703.34;4213938;28;21328;-63
2022/07/18 02:02:26;;;;;;;7.73;4.43;;;;;;;11.25;93.74;100709.84;4213710;28;20653;-62
2022/07/18 02:04:59;;;;;;;9.30;4.10;;;;;;;11.25;94.03;100720.50;4211027;28;20351;-63
2022/07/18 02:07:31;;;;;;;8.87;4.47;;;;;;;11.21;94.04;100714.59;4229195;28;20240;-62
2022/07/18 02:09:58;;;;;;;8.67;4.33;;;;;;;11.12;94.98;100710.97;4211988;28;20233;-63
2022/07/18 02:12:25;;;;;;;7.53;3.80;;;;;;;11.14;94.92;100718.81;4215105;28;23455;-63
2022/07/18 02:14:51;;;;;;;12.83;4.43;;;;;;;11.14;94.96;100714.34;4210713;28;20308;-63
2022/07/18 02:17:19;;;;;;;11.47;4.63;;;;;;;11.05;94.98;100709.00;4212187;28;20233;-63
2022/07/18 02:19:46;;;;;;;9.77;5.07;;;;;;;11.05;95.44;100714.31;4214942;28;20239;-64
2022/07/18 02:22:13;;;;;;;7.73;3.97;;;;;;;11.13;95.43;100719.81;4216413;28;20241;-65
2022/07/18 02:24:39;;;;;;;8.17;4.10;;;;;;;11.10;95.02;100722.75;4195763;28;20707;-64
2022/07/18 02:27:06;;;;;;;13.13;4.90;;;;;;;11.04;95.26;100723.31;4215727;28;20236;-65
2022/07/18 02:29:33;;;;;;;14.00;5.00;;;;;;;11.00;95.37;100717.41;4210869;28;20228;-63
2022/07/18 02:32:00;;;;;;;10.00;4.13;;;;;;;10.95;95.83;100720.50;4209905;28;21818;-65
2022/07/18 02:34:26;;;;;;;10.53;4.70;;;;;;;10.96;96.04;100714.22;4212397;28;21509;-64
2022/07/18 02:36:53;;;;;;;12.47;4.57;;;;;;;10.91;96.39;100719.13;4208304;28;20327;-63
2022/07/18 02:39:19;;;;;;;12.17;4.23;;;;;;;10.94;96.65;100708.19;4216972;28;20233;-65
2022/07/18 02:41:46;;;;;;;13.50;5.00;;;;;;;11.00;96.68;100714.75;4208814;28;20232;-63
2022/07/18 02:44:13;;;;;;;11.83;4.40;;;;;;;11.03;95.89;100713.63;4212352;28;21745;-64
2022/07/18 02:46:40;;;;;;;8.03;4.40;;;;;;;11.06;95.90;100716.03;4212485;28;20569;-63
2022/07/18 02:49:06;;;;;;;9.00;4.87;;;;;;;10.96;96.14;100716.88;4209100;28;20245;-64
2022/07/18 02:51:33;;;;;;;9.13;4.37;;;;;;;10.94;95.90;100724.16;4211491;28;20229;-64
2022/07/18 02:54:00;;;;;;;11.93;4.03;;;;;;;10.94;96.35;100718.81;4214277;28;20261;-67
2022/07/18 02:56:26;;;;;;;9.33;4.40;;;;;;;10.85;96.81;100719.66;4214505;28;20891;-63
2022/07/18 02:58:53;;;;;;;11.97;4.40;;;;;;;10.92;96.06;100720.78;4211211;28;20974;-65
2022/07/18 03:01:20;;;;;;;11.47;4.37;;;;;;;10.84;96.27;100728.66;4215825;28;20645;-64
2022/07/18 03:03:47;;;;;;;8.90;3.90;;;;;;;10.83;97.21;100721.63;4219748;28;21207;-62
2022/07/18 03:06:13;;;;;;;9.20;4.00;;;;;;;10.85;97.39;100726.81;4218742;28;20235;-63
2022/07/18 03:08:40;;;;;;;10.93;5.97;;;;;;;10.73;97.52;100726.13;4224085;28;21211;-65
2022/07/18 03:11:07;;;;;;;11.10;4.93;;;;;;;10.77;98.03;100725.69;4205163;28;22503;-63
2022/07/18 03:13:34;;;;;;;13.27;4.87;;;;;;;10.80;97.36;100729.91;4216231;28;21606;-65
2022/07/18 03:16:01;;;;;;;14.90;4.83;;;;;;;10.75;97.23;100721.50;4223921;28;20828;-65
2022/07/18 03:18:28;;;;;;;9.37;4.20;;;;;;;10.84;97.56;100722.47;4209321;28;20257;-66
2022/07/18 03:20:54;;;;;;;9.10;4.73;;;;;;;10.86;96.71;100720.50;4215935;28;20318;-65
2022/07/18 03:23:21;;;;;;;11.63;4.77;;;;;;;10.96;96.50;100726.69;4231847;28;20241;-64
2022/07/18 03:25:47;;;;;;;13.83;4.93;;;;;;;11.04;96.60;100724.16;4208017;28;20272;-64
2022/07/18 03:28:14;;;;;;;8.43;4.60;;;;;;;11.06;95.67;100724.00;4209596;28;22454;-64
2022/07/18 03:30:41;;;;;;;7.23;4.87;;;;;;;11.15;95.40;100732.00;4223822;28;22019;-64
2022/07/18 03:33:08;;;;;;;11.13;4.43;;;;;;;11.24;95.08;100730.31;4216000;28;20235;-64
2022/07/18 03:35:34;;;;;;;9.10;4.30;;;;;;;11.15;95.56;100731.16;4206960;28;20231;-65
2022/07/18 03:38:01;;;;;;;13.73;4.90;;;;;;;11.27;94.85;100731.84;4211931;28;20294;-65
2022/07/18 03:40:27;;;;;;;8.57;4.30;;;;;;;11.23;95.20;100736.59;4211277;28;20313;-63
2022/07/18 03:42:54;;;;;;;10.90;4.50;;;;;;;11.26;95.14;100744.34;4214678;28;23238;-65
2022/07/18 03:45:21;;;;;;;9.30;4.57;;;;;;;11.31;95.19;100747.41;4209484;28;20719;-66
2022/07/18 03:47:48;;;;;;;14.10;4.37;;;;;;;11.37;95.57;100746.81;4207855;28;20279;-64
2022/07/18 03:50:14;;;;;;;11.53;5.10;;;;;;;11.47;94.53;100740.63;4213981;28;20232;-65
2022/07/18 03:52:41;;;;;;;10.17;4.43;;;;;;;11.56;94.89;100756.59;4220048;28;21905;-63
2022/07/18 03:55:07;;;;;;;9.67;4.70;;;;;;;11.68;94.04;100743.94;4210941;28;20540;-64
2022/07/18 03:57:34;;;;;;;11.53;4.20;;;;;;;11.65;93.89;100744.25;4199139;28;20652;-63
2022/07/18 04:00:02;;;;;;;9.37;4.40;;;;;;;11.76;93.35;100751.25;4225896;28;20311;-63
2022/07/18 04:02:29;;;;;;;8.67;4.47;;;;;;;11.80;92.52;100748.16;4205482;28;25027;-63
2022/07/18 04:04:56;;;;;;;5.83;3.67;;;;;;;11.87;92.14;100752.88;4211355;28;20577;-64
2022/07/18 04:07:22;;;;;;;8.33;3.90;;;;;;;11.94;91.83;100752.19;4210306;28;21191;-64
2022/07/18 04:09:49;;;;;;;11.33;4.10;;;;;;;12.04;91.54;100753.00;4226101;28;20228;-65
2022/07/18 04:12:15;;;;;;;7.87;4.00;;;;;;;12.12;90.87;100752.25;4223919;28;20458;-66
2022/07/18 04:14:42;;;;;;;9.27;4.00;;;;;;;12.25;91.01;100751.94;4202357;28;20426;-66
2022/07/18 04:17:09;;;;;;;6.37;3.77;;;;;;;12.48;89.80;100751.50;4202948;28;22627;-64
2022/07/18 04:19:36;;;;;;;8.07;3.97;;;;;;;12.46;89.51;100754.34;4216879;28;20311;-62
2022/07/18 04:22:02;;;;;;;12.50;3.80;;;;;;;12.49;88.40;100759.38;4213925;28;20233;-64
2022/07/18 04:24:29;;;;;;;9.30;4.13;;;;;;;12.49;89.23;100748.69;4207809;28;20505;-64
2022/07/18 04:26:56;;;;;;;9.83;4.00;;;;;;;12.56;89.03;100748.94;4208523;28;20251;-65
2022/07/18 04:29:23;;;;;;;10.23;4.10;;;;;;;12.68;88.44;100745.91;4207099;28;20239;-63
2022/07/18 04:31:49;;;;;;;8.60;4.67;;;;;;;12.84;87.58;100744.38;4205954;28;20294;-64
2022/07/18 04:34:16;;;;;;;9.17;4.73;;;;;;;12.91;86.76;100740.13;4203576;28;20831;-63
2022/07/18 04:36:42;;;;;;;8.60;4.30;;;;;;;13.05;86.55;100744.91;4209522;28;21806;-63
2022/07/18 04:39:09;;;;;;;6.70;3.97;;;;;;;12.99;86.83;100748.19;4196934;28;20228;-65
2022/07/18 04:41:36;;;;;;;8.53;4.00;;;;;;;13.12;86.84;100745.16;4205157;28;21460;-66
2022/07/18 04:44:02;;;;;;;9.37;4.03;;;;;;;13.24;86.33;100748.41;4208558;28;21348;-64
2022/07/18 04:46:29;;;;;;;9.37;3.87;;;;;;;13.19;86.37;100748.88;4204498;28;21258;-63
2022/07/18 04:48:56;;;;;;;14.10;3.90;;;;;;;13.29;85.52;100746.97;4195491;28;20597;-64
2022/07/18 04:51:23;;;;;;;8.57;3.93;;;;;;;13.34;85.95;100746.50;4212646;28;20232;-63
2022/07/18 04:53:50;;;;;;;8.10;3.47;;;;;;;13.52;84.90;100746.50;4209493;28;20753;-62
2022/07/18 04:56:16;;;;;;;7.73;4.10;;;;;;;13.69;84.42;100760.81;4200534;28;20263;-62
2022/07/18 04:58:43;;;;;;;9.27;3.60;;;;;;;13.78;84.45;100756.34;4209139;28;21320;-65
2022/07/18 05:01:09;;;;;;;8.80;3.63;;;;;;;13.67;84.52;100754.78;4207314;28;20513;-64
2022/07/18 05:03:36;;;;;;;14.00;4.00;;;;;;;13.63;85.02;100764.13;4204284;28;23615;-63
2022/07/18 05:06:02;;;;;;;12.23;4.57;;;;;;;13.84;84.67;100761.91;4210808;28;20585;-63
2022/07/18 05:08:29;;;;;;;10.00;3.80;;;;;;;14.14;83.45;100765.94;4229508;28;20240;-64
2022/07/18 05:10:56;;;;;;;8.90;4.23;;;;;;;14.34;82.19;100765.66;4207965;28;21299;-64
2022/07/18 05:13:22;;;;;;;8.87;3.37;;;;;;;14.69;81.55;100767.31;4207903;28;23445;-64
2022/07/18 05:15:49;;;;;;;9.60;4.10;;;;;;;14.98;78.79;100760.66;4215046;28;21134;-64
2022/07/18 05:18:16;;;;;;;8.23;3.70;;;;;;;15.23;77.78;100764.22;4206888;28;20233;-64
2022/07/18 05:20:42;;;;;;;6.73;3.40;;;;;;;15.44;77.13;100766.38;4206979;28;20313;-64
2022/07/18 05:23:10;;;;;;;6.20;3.87;;;;;;;15.38;77.52;100770.59;4197150;28;22887;-64
2022/07/18 05:25:36;;;;;;;6.53;3.63;;;;;;;15.59;76.81;100772.75;4205479;28;21200;-64
2022/07/18 05:28:04;;;;;;;14.03;4.30;;;;;;;15.63;74.74;100760.66;4208734;28;20306;-62
2022/07/18 05:30:30;;;;;;;9.27;3.70;;;;;;;15.66;76.29;100764.84;4208621;28;20941;-68
2022/07/18 05:32:57;;;;;;;10.87;3.83;;;;;;;15.69;76.72;100766.38;4225558;28;20428;-63
2022/07/18 05:35:24;;;;;;;12.73;3.67;;;;;;;15.70;76.40;100765.34;4211827;28;20578;-63
2022/07/18 05:37:51;;;;;;;9.37;3.43;;;;;;;16.11;74.76;100766.13;4205722;28;20623;-65
2022/07/18 05:40:17;;;;;;;8.90;3.70;;;;;;;16.34;74.05;100765.34;4209486;28;21527;-65
2022/07/18 05:42:45;;;;;;;10.70;3.40;;;;;;;16.72;71.94;100765.50;4207225;28;21350;-64
2022/07/18 05:45:22;;;;;;;10.30;3.37;;;;;;;16.87;71.78;100764.59;4210223;28;20235;-66
2022/07/18 05:47:50;;;;;;;7.63;3.63;;;;;;;17.61;67.90;100772.06;4209607;28;22899;-64
2022/07/18 05:50:17;;;;;;;6.70;3.20;;;;;;;17.79;66.51;100773.56;4212201;28;20302;-63
2022/07/18 05:52:44;;;;;;;7.70;2.70;;;;;;;17.67;66.07;100779.41;4207847;28;21373;-62
2022/07/18 05:55:11;;;;;;;11.47;3.27;;;;;;;17.55;66.85;100770.09;4202092;28;20267;-61
2022/07/18 05:57:38;;;;;;;6.43;2.87;;;;;;;17.38;68.12;100773.97;4218091;28;20247;-63
2022/07/18 06:00:07;;;;;;;9.60;3.53;;;;;;;17.22;69.24;100772.25;4215754;28;20291;-64
2022/07/18 06:02:33;;;;;;;11.60;3.67;;;;;;;17.86;67.83;100779.94;4197156;28;20259;-64
2022/07/18 06:05:00;;;;;;;6.20;3.23;;;;;;;17.95;67.26;100784.22;4209811;28;22717;-61
2022/07/18 06:07:46;;;;;;;8.90;3.47;;;;;;;18.67;65.77;100788.88;4216833;28;20283;-62
2022/07/18 06:10:13;;;;;;;8.10;2.87;;;;;;;18.84;63.02;100794.09;4209253;28;20303;-70
2022/07/18 06:12:40;;;;;;;5.80;3.00;;;;;;;18.53;64.65;100782.50;4215462;28;20307;-70
2022/07/18 06:15:10;;;;;;;8.70;3.40;;;;;;;18.38;65.69;100787.09;4212589;28;20978;-71
2022/07/18 06:17:36;;;;;;;9.80;2.90;;;;;;;18.45;63.58;100788.00;4209293;28;20232;-71
2022/07/18 06:20:05;;;;;;;8.83;3.33;;;;;;;18.39;65.41;100790.63;4198724;28;21933;-69
2022/07/18 06:22:31;;;;;;;6.33;3.10;;;;;;;18.82;63.65;100783.47;4205832;28;20252;-71
2022/07/18 06:24:58;;;;;;;4.63;2.90;;;;;;;18.41;63.95;100778.63;4226578;28;20693;-70
2022/07/18 06:27:25;;;;;;;8.53;2.80;;;;;;;18.21;65.50;100783.75;4205353;28;20266;-70
2022/07/18 06:29:52;;;;;;;7.10;2.93;;;;;;;19.16;62.89;100780.09;4218206;28;20978;-71
2022/07/18 06:32:18;;;;;;;6.97;3.20;;;;;;;19.63;59.86;100783.22;4207204;28;20225;-71
2022/07/18 06:34:45;;;;;;;8.90;2.53;;;;;;;19.87;58.37;100790.06;4197706;28;20331;-70
2022/07/18 06:37:11;;;;;;;10.53;4.17;;;;;;;20.19;56.53;100793.19;4216923;28;20232;-68
2022/07/18 06:39:39;;;;;;;8.97;2.90;;;;;;;20.35;57.67;100797.44;4223243;28;25110;-68
2022/07/18 06:42:05;;;;;;;8.53;2.33;;;;;;;20.38;55.59;100795.13;4254464;28;20232;-70
2022/07/18 06:44:32;;;;;;;8.53;2.70;;;;;;;20.53;53.53;100800.41;4224104;28;21693;-68
2022/07/18 06:46:59;;;;;;;6.00;2.50;;;;;;;20.62;54.05;100792.97;4223509;28;20699;-69
2022/07/18 06:49:26;;;;;;;8.93;2.53;;;;;;;20.72;53.89;100798.84;4217590;28;20676;-69
2022/07/18 06:51:52;;;;;;;6.53;3.40;;;;;;;20.71;54.25;100796.34;4193997;28;20236;-70
2022/07/18 06:54:20;;;;;;;10.07;3.70;;;;;;;20.92;53.31;100796.19;4208468;28;20275;-73
2022/07/18 06:56:46;;;;;;;9.73;3.77;;;;;;;20.88;54.20;100797.63;4230952;28;20235;-67
2022/07/18 06:59:13;;;;;;;11.03;3.87;;;;;;;20.66;55.00;100786.13;4216217;28;21127;-70
2022/07/18 07:01:40;;;;;;;9.23;3.33;;;;;;;21.16;53.07;100791.25;4229778;28;20243;-69
2022/07/18 07:04:06;;;;;;;7.87;3.10;;;;;;;21.37;52.65;100793.75;4229901;28;20235;-69
2022/07/18 07:06:33;;;;;;;6.83;2.80;;;;;;;22.20;49.74;100801.44;4208039;28;20319;-70
2022/07/18 07:08:59;;;;;;;5.67;2.60;;;;;;;22.12;49.09;100801.66;4207848;28;21900;-71
2022/07/18 07:11:26;;;;;;;6.37;3.40;;;;;;;22.21;48.96;100803.13;4224027;28;20245;-70
2022/07/18 07:13:53;;;;;;;8.33;3.60;;;;;;;22.53;48.67;100801.34;4235634;28;21914;-70
2022/07/18 07:16:19;;;;;;;5.60;3.40;;;;;;;22.23;47.86;100800.22;4203958;28;20240;-71
2022/07/18 07:18:46;;;;;;;8.80;3.77;;;;;;;21.28;51.29;100789.59;4215925;28;20395;-70
2022/07/18 07:21:12;;;;;;;8.20;3.87;;;;;;;21.06;53.97;100783.53;4211207;28;20228;-67
2022/07/18 07:23:45;;;;;;;7.90;3.87;;;;;;;20.42;55.01;100782.06;4209057;28;20843;-75
2022/07/18 07:26:12;;;;;;;5.27;3.03;;;;;;;19.93;56.87;100772.25;4215450;28;20239;-74
2022/07/18 07:28:39;;;;;;;7.33;3.03;;;;;;;20.55;55.53;100781.28;4209958;28;20318;-74
2022/07/18 07:31:05;;;;;;;9.20;2.70;;;;;;;20.30;55.76;100783.66;4216558;28;20235;-69
2022/07/18 07:33:32;;;;;;;7.60;3.17;;;;;;;20.34;56.63;100784.94;4220795;28;20339;-64
2022/07/18 07:36:00;;;;;;;9.77;3.00;;;;;;;20.31;56.88;100779.94;4225374;28;20979;-67
2022/07/18 07:38:28;;;;;;;7.27;2.80;;;;;;;20.86;55.86;100778.94;4221301;28;20235;-71
2022/07/18 07:40:56;;;;;;;11.00;3.70;;;;;;;20.98;54.00;100776.44;4236077;28;21071;-67
2022/07/18 07:43:27;;;;;;;9.73;3.20;;;;;;;21.08;53.58;100776.06;4212532;28;22119;-75
2022/07/18 07:45:55;;;;;;;7.30;3.00;;;;;;;21.36;54.34;100777.75;4213158;28;20522;-71
2022/07/18 07:48:22;;;;;;;6.50;2.87;;;;;;;21.43;51.21;100779.44;4207863;28;20725;-75
2022/07/18 07:50:50;;;;;;;10.50;3.27;;;;;;;21.86;49.70;100781.69;4200580;28;21739;-73
2022/07/18 07:53:17;;;;;;;7.77;2.87;;;;;;;21.87;50.88;100779.84;4234838;28;22082;-76
2022/07/18 07:55:44;;;;;;;9.57;2.37;;;;;;;21.71;51.64;100770.25;4220720;28;20289;-76
2022/07/18 07:58:11;;;;;;;7.27;2.43;;;;;;;21.64;52.36;100774.88;4211965;28;25720;-77
2022/07/18 08:00:41;;;;;;;6.00;2.13;;;;;;;21.49;52.10;100773.19;4232611;28;20289;-73
2022/07/18 08:03:08;;;;;;;7.13;2.27;;;;;;;21.69;51.73;100783.19;4220129;28;20240;-75
2022/07/18 08:05:43;;;;;;;7.23;2.33;;;;;;;21.73;52.13;100779.03;4218313;28;20240;-65
2022/07/18 08:08:10;;;;;;;5.83;2.27;;;;;;;21.49;52.05;100778.63;4214056;28;22886;-66
2022/07/18 08:10:36;;;;;;;4.60;2.07;;;;;;;21.28;52.97;100779.63;4213789;28;20241;-64
2022/07/18 08:13:10;;;;;;;5.33;2.00;;;;;;;21.06;53.57;100778.94;4214192;28;22520;-63
2022/07/18 08:15:37;;;;;;;6.10;1.70;;;;;;;20.80;56.20;100778.91;4222219;28;22531;-50
2022/07/18 08:18:04;;;;;;;7.57;1.93;;;;;;;20.88;55.36;100776.00;4191441;28;21139;-62
2022/07/18 08:20:33;;;;;;;5.17;1.67;;;;;;;20.95;54.17;100784.97;4211149;28;20720;-64
2022/07/18 08:23:02;;;;;;;6.67;1.73;;;;;;;20.86;55.39;100778.06;4235244;28;25661;-65
2022/07/18 08:25:30;;;;;;;7.63;2.30;;;;;;;20.75;55.68;100770.56;4233791;28;20614;-63
2022/07/18 08:27:58;;;;;;;4.37;1.80;;;;;;;21.08;54.12;100771.47;4221164;28;21133;-65
2022/07/18 08:30:25;;;;;;;7.67;1.90;;;;;;;20.78;54.71;100768.28;4214405;28;20229;-65
2022/07/18 08:32:51;;;;;;;5.57;2.00;;;;;;;20.63;55.59;100773.88;4267380;28;20232;-55
2022/07/18 08:35:19;;;;;;;5.73;2.03;;;;;;;20.89;55.48;100777.69;4238146;28;20363;-65
2022/07/18 08:37:46;;;;;;;7.50;2.33;;;;;;;21.10;56.28;100781.28;4218493;28;20241;-64
2022/07/18 08:40:14;;;;;;;6.03;2.07;;;;;;;21.03;55.58;100771.25;4237694;28;21338;-65
2022/07/18 08:42:40;;;;;;;5.63;2.27;;;;;;;20.86;56.63;100775.38;4229069;28;20361;-68
2022/07/18 08:45:27;;;;;;;4.07;1.57;;;;;;;20.76;55.84;100769.53;4223456;28;21634;-68
2022/07/18 08:47:54;;;;;;;6.80;1.87;;;;;;;20.80;57.14;100777.03;4225001;28;20694;-67
2022/07/18 08:50:22;;;;;;;6.77;2.10;;;;;;;21.00;57.52;100774.38;4233603;28;20267;-70
2022/07/18 08:52:49;;;;;;;3.87;1.50;;;;;;;21.14;55.61;100768.97;4220638;28;20303;-63
2022/07/18 08:55:20;;;;;;;7.10;2.10;;;;;;;20.91;55.64;100772.91;4200967;28;21638;-69
2022/07/18 08:57:52;;;;;;;6.20;2.33;;;;;;;20.81;54.23;100764.31;4267286;28;20319;-72
2022/07/18 09:00:20;;;;;;;7.47;2.03;;;;;;;20.62;56.19;100761.34;4216893;28;20240;-75
2022/07/18 09:03:00;;;;;;;8.30;2.50;;;;;;;20.60;58.47;100758.06;4234929;28;21698;-70
2022/07/18 09:05:27;;;;;;;6.60;1.90;;;;;;;20.89;55.51;100756.03;4210157;28;21515;-74
2022/07/18 09:08:22;;;;;;;4.57;2.07;;;;;;;20.97;55.86;100766.66;4206913;28;20290;-72
2022/07/18 09:10:50;;;;;;;6.60;2.00;;;;;;;20.77;56.61;100750.41;4244627;28;20236;-75
2022/07/18 09:13:18;;;;;;;4.23;1.77;;;;;;;20.81;56.62;100753.50;4241299;28;20247;-69
2022/07/18 09:16:04;;;;;;;9.47;2.00;;;;;;;20.83;56.61;100763.09;4194489;28;20231;-68
2022/07/18 09:18:38;;;;;;;6.70;1.97;;;;;;;20.89;57.23;100752.50;4201977;28;20267;-76
2022/07/18 09:21:17;;;;;;;5.27;1.97;;;;;;;20.95;55.66;100749.78;4237216;28;20385;-75
2022/07/18 09:23:49;;;;;;;6.53;1.77;;;;;;;20.86;56.37;100751.88;4213765;28;20705;-74
2022/07/18 09:26:41;;;;;;;5.17;1.83;;;;;;;20.87;55.50;100755.41;4210660;28;20236;-73
2022/07/18 09:29:14;;;;;;;7.07;2.03;;;;;;;20.99;54.69;100759.16;4213391;28;20888;-74
2022/07/18 09:32:00;;;;;;;4.97;2.03;;;;;;;21.22;54.78;100760.66;4211661;28;20260;-74
2022/07/18 09:34:37;;;;;;;5.87;1.83;;;;;;;21.54;54.20;100758.19;4210088;28;22328;-74
2022/07/18 09:37:10;;;;;;;4.23;1.33;;;;;;;21.99;51.04;100769.19;4209035;28;20231;-74
2022/07/18 09:39:37;;;;;;;3.23;1.67;;;;;;;21.88;52.35;100760.63;4199016;28;20467;-75
2022/07/18 09:42:16;;;;;;;8.87;1.80;;;;;;;21.62;52.40;100761.50;4197441;28;20227;-74
2022/07/18 09:44:56;;;;;;;7.50;1.60;;;;;;;21.50;52.54;100750.50;4208075;28;23824;-75
2022/07/18 09:47:23;;;;;;;10.10;1.90;;;;;;;21.58;53.69;100757.56;4209585;28;20617;-75
2022/07/18 09:49:50;;;;;;;5.20;1.90;;;;;;;21.42;53.44;100750.72;4201432;28;20797;-75
2022/07/18 09:52:16;;;;;;;5.90;1.63;;;;;;;21.46;53.90;100751.94;4197488;28;20231;-74
2022/07/18 09:54:44;;;;;;;5.37;1.67;;;;;;;21.38;54.11;100764.84;4213954;28;20232;-75
2022/07/18 09:57:23;;;;;;;4.70;2.30;;;;;;;21.07;55.02;100750.00;4225804;28;21056;-81
2022/07/18 09:59:49;;;;;;;4.73;1.93;;;;;;;21.16;55.43;100756.06;4202853;28;20256;-75
2022/07/18 10:02:16;;;;;;;4.50;1.80;;;;;;;21.22;53.84;100753.38;4226689;28;20673;-80
2022/07/18 10:04:44;;;;;;;8.37;2.00;;;;;;;21.11;54.98;100758.56;4212479;28;21248;-78
2022/07/18 10:07:11;;;;;;;7.17;1.80;;;;;;;20.98;54.85;100757.50;4234425;28;20241;-77
2022/07/18 10:09:39;;;;;;;12.07;2.70;;;;;;;21.04;55.04;100753.13;4210193;28;20244;-80
2022/07/18 10:12:07;;;;;;;5.17;1.97;;;;;;;21.07;55.62;100755.41;4227534;28;22685;-75
2022/07/18 10:14:34;;;;;;;9.53;1.67;;;;;;;21.20;55.41;100752.75;4212421;28;21573;-77
2022/07/18 10:17:01;;;;;;;4.93;1.50;;;;;;;21.59;52.99;100753.81;4230126;28;20232;-74
2022/07/18 10:19:28;;;;;;;4.17;2.00;;;;;;;22.02;52.13;100758.72;4235517;28;20456;-76
2022/07/18 10:21:56;;;;;;;3.30;1.53;;;;;;;22.16;52.31;100758.72;4242807;28;20601;-78
2022/07/18 10:24:24;;;;;;;9.30;1.83;;;;;;;22.06;51.82;100759.97;4219994;28;20248;-74
2022/07/18 10:27:16;;;;;;;3.23;1.20;;;;;;;21.99;52.47;100761.06;4208011;28;20244;-77
2022/07/18 10:30:11;;;;;;;4.40;1.90;;;;;;;21.98;52.26;100759.38;4195293;28;20229;-76
2022/07/18 10:32:39;;;;;;;3.13;1.60;;;;;;;21.95;51.00;100760.63;4224144;28;20313;-76
2022/07/18 10:35:06;;;;;;;4.07;1.23;;;;;;;21.87;50.75;100769.81;4225807;28;21336;-76
2022/07/18 10:37:34;;;;;;;5.50;1.83;;;;;;;21.85;52.35;100763.78;4209682;28;21031;-76
2022/07/18 10:40:24;;;;;;;5.43;1.93;;;;;;;21.98;50.48;100759.38;4236180;28;21395;-77
2022/07/18 10:43:31;;;;;;;5.33;2.00;;;;;;;22.12;51.59;100755.56;4239614;28;20231;-76
2022/07/18 10:45:59;;;;;;;7.57;1.67;;;;;;;22.17;50.63;100758.47;4229483;28;20477;-69
2022/07/18 10:48:38;;;;;;;4.60;1.90;;;;;;;22.38;49.24;100764.69;4205945;28;20536;-75
2022/07/18 10:51:06;;;;;;;2.43;1.30;;;;;;;22.58;51.54;100756.47;4232078;28;20309;-55
2022/07/18 10:54:01;;;;;;;5.40;1.73;;;;;;;22.96;48.63;100767.31;4229188;28;20291;-57
2022/07/18 10:56:28;;;;;;;2.63;1.40;;;;;;;22.72;49.16;100761.63;4213227;28;20305;-52
2022/07/18 10:58:55;;;;;;;7.03;1.60;;;;;;;22.62;50.67;100758.56;4204468;28;20237;-52
2022/07/18 11:01:24;;;;;;;10.33;3.30;;;;;;;22.77;50.18;100759.06;4187366;28;20237;-64
2022/07/18 11:04:25;;;;;;;5.50;2.03;;;;;;;22.71;49.48;100757.25;4191298;28;21216;-62
2022/07/18 11:07:08;;;;;;;5.10;1.80;;;;;;;22.91;50.34;100759.81;4202576;28;20243;-63
2022/07/18 11:09:46;;;;;;;2.87;1.50;;;;;;;23.06;47.01;100758.72;4196651;28;20240;-63
2022/07/18 11:12:23;;;;;;;3.83;1.30;;;;;;;23.00;46.43;100751.47;4190340;28;20303;-60
2022/07/18 11:15:05;;;;;;;3.60;1.40;;;;;;;23.15;48.85;100741.09;4201400;28;20235;-60
2022/07/18 11:17:51;;;;;;;3.20;1.50;;;;;;;23.01;48.66;100742.25;4194680;28;20280;-61
2022/07/18 11:20:36;;;;;;;3.27;1.40;;;;;;;22.77;48.54;100752.81;4195912;28;21880;-62
2022/07/18 11:23:13;;;;;;;6.53;1.83;;;;;;;22.67;50.49;100747.88;4190453;28;21775;-65
2022/07/18 11:25:39;;;;;;;4.87;1.50;;;;;;;22.44;50.07;100748.41;4215037;28;20226;-62
2022/07/18 11:28:25;;;;;;;7.30;1.10;;;;;;;22.36;50.77;100750.50;4195309;28;20505;-60
2022/07/18 11:31:21;;;;;;;3.93;1.57;;;;;;;22.32;50.93;100750.13;4208732;28;20233;-63
2022/07/18 11:33:49;;;;;;;3.53;1.80;;;;;;;22.20;51.81;100736.38;4169233;28;20634;-63
2022/07/18 11:36:17;;;;;;;5.13;2.00;;;;;;;22.11;52.32;100738.47;4224844;28;20310;-75